»·PEaware :: DFGCW KLWL-KMLF

DFGCW :: KLWL-KMLF

FLIGHT INFORMATION

Flight Status: Arrived
Operator: Unknown
More flights by this operator :: More flights under this callsign
Pilot: Klaus A. (15485)
Aircraft: PILATUS PC-12 EAGLE
(PC12)
More flights by this aircraft type
Origin: KLWL Wells Mun/Harriet
United States
Destination: KMLF Milford Mun
United States
More flights between these airports :: More routes between these airports
Route: SPATS V269 ELY V293 ILC V244 MLF
File this flight plan on PilotEdge
Remarks: PBN / D2 DOF / 180906 REG / DFGCW PER / B RMK / TCAS SIMBRIEF
Altitude:
(Current/Filed)
25,000ft
Speed:
(Current/Filed)
275kts
Departed: 06-Sep-18 08:05 AM
Arrived: 06-Sep-18 09:24 AM
Distance/Time
Traveled:
184nm/1:19
Distance/Time
To Go:
Arrived

Flight Plot

Page will automatically refresh every two minutes.

Flight plan parsing failed; only flown route is shown


Map Options




Map Legend


Flown Route
Filed Route
Departure Airport
Arrival Airport
Navaid (VOR, NDB)
Fix

Horizontal Profiles

Position Reports

Time Latitude Longitude Heading Altitude Ground
Speed
06-Sep-18 07:44 41.115689 -114.926957 190 5775ft 0kts
06-Sep-18 07:45 41.115689 -114.926957 190 5775ft 0kts
06-Sep-18 07:46 41.115689 -114.926957 190 5775ft 0kts
06-Sep-18 07:47 41.115689 -114.926957 190 5775ft 0kts
06-Sep-18 07:49 41.115689 -114.926957 190 5775ft 0kts
06-Sep-18 07:50 41.115689 -114.926957 190 5775ft 0kts
06-Sep-18 07:51 41.115688 -114.926957 189 5775ft 0kts
06-Sep-18 07:52 41.115688 -114.926957 189 5775ft 0kts
06-Sep-18 07:53 41.115688 -114.926957 189 5775ft 0kts
06-Sep-18 07:54 41.115688 -114.926957 189 5775ft 0kts
06-Sep-18 07:55 41.115570 -114.926885 119 5775ft 2kts
06-Sep-18 07:56 41.115508 -114.926338 93 5776ft 0kts
06-Sep-18 08:01 41.115310 -114.924951 37 5776ft 9kts
06-Sep-18 08:02 41.116245 -114.924887 285 5775ft 12kts
06-Sep-18 08:03 41.117336 -114.931997 274 5776ft 5kts
06-Sep-18 08:04 41.117268 -114.931833 91 5775ft 0kts
06-Sep-18 08:05 41.117268 -114.931833 91 5775ft 0kts
06-Sep-18 08:06 41.117268 -114.931833 91 5775ft 0kts
06-Sep-18 08:07 41.116807 -114.928725 100 5776ft 74kts
06-Sep-18 08:08 41.107329 -114.883940 122 6822ft 152kts
06-Sep-18 08:09 41.071880 -114.858216 174 8624ft 159kts
06-Sep-18 08:10 41.027202 -114.853115 176 10168ft 172kts
06-Sep-18 08:11 40.985558 -114.824497 141 11579ft 181kts
06-Sep-18 08:12 40.944820 -114.788374 147 12952ft 180kts
06-Sep-18 08:13 40.903644 -114.750599 146 14168ft 182kts
06-Sep-18 08:14 40.862288 -114.712716 146 15441ft 186kts
06-Sep-18 08:15 40.819667 -114.673158 146 16855ft 190kts
06-Sep-18 08:16 40.776160 -114.632589 146 18145ft 194kts
06-Sep-18 08:17 40.728051 -114.603483 186 19271ft 196kts
06-Sep-18 08:18 40.672984 -114.604796 182 20306ft 201kts
06-Sep-18 08:19 40.618684 -114.622613 194 21255ft 204kts
06-Sep-18 08:20 40.562258 -114.635804 191 22114ft 209kts
06-Sep-18 08:21 40.504130 -114.646731 189 22913ft 213kts
06-Sep-18 08:22 40.444942 -114.657089 189 23656ft 217kts
06-Sep-18 08:23 40.384823 -114.667356 189 24387ft 219kts
06-Sep-18 08:24 40.323925 -114.677708 190 25040ft 222kts
06-Sep-18 08:25 40.261423 -114.688435 189 25290ft 239kts
06-Sep-18 08:26 40.192910 -114.699947 189 25287ft 256kts
06-Sep-18 08:27 40.121377 -114.712064 189 25352ft 262kts
06-Sep-18 08:28 40.048737 -114.724081 189 25403ft 266kts
06-Sep-18 08:29 39.975185 -114.736428 189 25403ft 268kts
06-Sep-18 08:30 39.901155 -114.748911 189 25403ft 270kts
06-Sep-18 08:31 39.827064 -114.760974 190 25401ft 270kts
06-Sep-18 08:32 39.752884 -114.773321 190 25401ft 270kts
06-Sep-18 08:33 39.678424 -114.785669 190 25402ft 271kts
06-Sep-18 08:34 39.603590 -114.798112 190 25401ft 272kts
06-Sep-18 08:35 39.528751 -114.810491 190 25401ft 272kts
06-Sep-18 08:36 39.453548 -114.822900 190 25398ft 272kts
06-Sep-18 08:37 39.378637 -114.835254 190 25402ft 272kts
06-Sep-18 08:38 39.303515 -114.846974 184 25397ft 274kts
06-Sep-18 08:39 39.230135 -114.817445 162 25400ft 280kts
06-Sep-18 08:40 39.156565 -114.784215 163 25403ft 281kts
06-Sep-18 08:41 39.082976 -114.751038 163 25402ft 281kts
06-Sep-18 08:42 39.009557 -114.718008 162 25402ft 279kts
06-Sep-18 08:43 38.936759 -114.685305 162 25404ft 278kts
06-Sep-18 08:44 38.864451 -114.653285 163 25401ft 278kts
06-Sep-18 08:45 38.791601 -114.620855 162 25401ft 277kts
06-Sep-18 08:46 38.718951 -114.588291 162 25401ft 278kts
06-Sep-18 08:47 38.644927 -114.560444 164 25402ft 278kts
06-Sep-18 08:48 38.571283 -114.530118 163 25402ft 279kts
06-Sep-18 08:49 38.497755 -114.499021 163 25403ft 279kts
06-Sep-18 08:50 38.424100 -114.467846 163 25403ft 279kts
06-Sep-18 08:51 38.350432 -114.436738 163 25403ft 279kts
06-Sep-18 08:52 38.276735 -114.405476 159 25401ft 280kts
06-Sep-18 08:53 38.226049 -114.335537 106 25342ft 284kts
06-Sep-18 08:54 38.236231 -114.241169 52 25339ft 270kts
06-Sep-18 08:55 38.278445 -114.163923 73 25334ft 275kts
06-Sep-18 08:56 38.279712 -114.066461 85 25337ft 277kts
06-Sep-18 08:57 38.284905 -113.970984 82 24530ft 262kts
06-Sep-18 08:58 38.291521 -113.881469 82 23415ft 248kts
06-Sep-18 08:59 38.298029 -113.795514 83 22323ft 240kts
06-Sep-18 09:00 38.304427 -113.711928 83 21223ft 235kts
06-Sep-18 09:01 38.310703 -113.630016 83 20124ft 231kts
06-Sep-18 09:02 38.316893 -113.549404 83 19032ft 227kts
06-Sep-18 09:03 38.322813 -113.470105 83 17941ft 224kts
06-Sep-18 09:04 38.329024 -113.391719 78 16838ft 220kts
06-Sep-18 09:05 38.339327 -113.316943 84 15762ft 217kts
06-Sep-18 09:06 38.344565 -113.241023 84 14645ft 215kts
06-Sep-18 09:07 38.349940 -113.164857 85 13427ft 216kts
06-Sep-18 09:08 38.355210 -113.088881 85 12232ft 215kts
06-Sep-18 09:09 38.358507 -113.012986 105 10993ft 215kts
06-Sep-18 09:10 38.316941 -112.983136 209 10565ft 186kts
06-Sep-18 09:11 38.276195 -113.012351 180 10342ft 172kts
06-Sep-18 09:12 38.226490 -113.013699 173 9580ft 179kts
06-Sep-18 09:13 38.182018 -113.028906 224 8969ft 177kts
06-Sep-18 09:14 38.141723 -113.061318 174 8298ft 177kts
06-Sep-18 09:15 38.140194 -113.022582 354 8151ft 168kts
06-Sep-18 09:16 38.184175 -113.014600 15 8207ft 162kts
06-Sep-18 09:16 38.221253 -113.012907 2 8196ft 161kts
06-Sep-18 09:18 38.273722 -113.012714 3 8175ft 149kts
06-Sep-18 09:19 38.310772 -113.013740 356 7669ft 132kts
06-Sep-18 09:20 38.347921 -113.013921 358 6949ft 133kts
06-Sep-18 09:20 38.378741 -113.014471 358 6365ft 135kts
06-Sep-18 09:22 38.418942 -113.006963 24 5746ft 119kts
06-Sep-18 09:23 38.447484 -112.987071 31 6145ft 123kts
06-Sep-18 09:23 38.453731 -113.006653 206 5956ft 111kts
06-Sep-18 09:24 38.427623 -113.013244 178 5045ft 44kts
06-Sep-18 09:25 38.420540 -113.013385 180 5045ft 21kts
06-Sep-18 09:26 38.419640 -113.010994 294 5042ft 0kts
06-Sep-18 09:27 38.419640 -113.010994 294 5042ft 0kts
06-Sep-18 09:28 38.419640 -113.010994 294 5042ft 0kts
06-Sep-18 09:29 38.419640 -113.010994 294 5042ft 0kts

Navigation Log

Ident Type
Flight plan parsing failed, navigation log unavailable